Maxie, Virginia
Current Conditions -  °F | °C
As of 11:15 AM on Thursday 30 Oct 2014 (Local Time) from KJFZ Reporting Station
Broken Clouds Broken Clouds  
Wind Chill: 44°   Ceiling: 1200
Heat Index: 44°   Visibility: 10mi
Dew Point: 38°   Wind: 0mph
Humidity: 78%   Direction: NA
Pressure: 30.11"   Gusts: NA
Location:  37.3°N, 82.17°W
Report Text: KJFZ 301515Z AUTO 00000KT 10SM SCT007 BKN012 07/03 A3011 RMK AO2 T00660031
Loading
Personal Weather Stations






























Interactive Weather Map
Tropical Storm Tracking
New forecast layout! Learn more

10-Day Weather Forecast

Advertisements
Track Severe Weather on mobile